createdAt,value
2017-12-28T00:01:30.406Z,4.50
2017-12-28T00:03:58.602Z,4.40
2017-12-28T00:06:26.037Z,4.40
2017-12-28T00:08:54.241Z,4.40
2017-12-28T00:11:21.689Z,4.40
2017-12-28T00:13:49.123Z,4.50
2017-12-28T00:16:17.328Z,4.60
2017-12-28T00:18:44.762Z,4.60
2017-12-28T00:21:12.959Z,4.70
2017-12-28T00:23:40.386Z,4.70
2017-12-28T00:26:08.598Z,4.70
2017-12-28T00:28:36.050Z,4.70
2017-12-28T00:31:03.491Z,4.80
2017-12-28T00:33:30.922Z,4.70
2017-12-28T00:35:59.152Z,4.50
2017-12-28T00:38:26.578Z,4.50
2017-12-28T00:40:54.022Z,4.30
2017-12-28T00:43:22.230Z,3.90
2017-12-28T00:45:49.671Z,3.90
2017-12-28T00:48:17.099Z,3.80
2017-12-28T00:50:45.301Z,3.80
2017-12-28T00:53:12.725Z,3.80
2017-12-28T00:55:40.941Z,3.80
2017-12-28T00:58:08.362Z,3.80
2017-12-28T01:00:36.573Z,3.80
2017-12-28T01:03:04.004Z,3.80
2017-12-28T01:05:32.213Z,3.80
2017-12-28T01:07:59.642Z,3.80
2017-12-28T01:10:27.078Z,3.80
2017-12-28T01:12:55.282Z,3.80
2017-12-28T01:15:22.718Z,3.90
2017-12-28T01:17:50.913Z,3.90
2017-12-28T01:20:18.354Z,3.90
2017-12-28T01:22:46.546Z,3.90
2017-12-28T01:25:13.998Z,3.90
2017-12-28T01:27:41.425Z,3.90
2017-12-28T01:30:09.629Z,3.90
2017-12-28T01:32:37.063Z,3.90
2017-12-28T01:35:05.270Z,3.90
2017-12-28T01:37:33.465Z,3.90
2017-12-28T01:40:00.904Z,3.80
2017-12-28T01:42:28.334Z,3.80
2017-12-28T01:44:56.541Z,3.90
2017-12-28T01:47:23.973Z,3.90
2017-12-28T01:49:51.415Z,3.90
2017-12-28T01:52:19.625Z,3.90
2017-12-28T01:54:47.059Z,3.90
2017-12-28T01:57:15.256Z,3.90
2017-12-28T01:59:42.696Z,3.90
2017-12-28T02:02:10.899Z,3.80
2017-12-28T02:04:38.330Z,3.90
2017-12-28T02:07:05.774Z,3.90
2017-12-28T02:09:33.978Z,3.80
2017-12-28T02:12:01.421Z,3.80
2017-12-28T02:14:28.850Z,3.90
2017-12-28T02:16:57.098Z,3.90
2017-12-28T02:19:24.525Z,3.90
2017-12-28T02:21:51.965Z,3.90
2017-12-28T02:24:19.397Z,3.90
2017-12-28T02:26:47.606Z,3.80
2017-12-28T02:29:15.070Z,3.80
2017-12-28T02:31:42.517Z,3.80
2017-12-28T02:34:09.963Z,3.60
2017-12-28T02:36:37.395Z,3.60
2017-12-28T02:39:05.591Z,3.50
2017-12-28T02:41:33.026Z,3.50
2017-12-28T02:44:01.242Z,3.40
2017-12-28T02:46:28.687Z,3.40
2017-12-28T02:48:56.118Z,3.40
2017-12-28T02:51:24.328Z,3.30
2017-12-28T02:53:51.754Z,3.30
2017-12-28T02:56:19.962Z,3.20
2017-12-28T02:58:47.394Z,3.20
2017-12-28T03:01:14.844Z,3.20
2017-12-28T03:03:43.038Z,3.20
2017-12-28T03:06:10.474Z,3.20
2017-12-28T03:08:38.678Z,3.10
2017-12-28T03:11:06.135Z,3.00
2017-12-28T03:13:33.567Z,3.00
2017-12-28T03:16:01.786Z,2.90
2017-12-28T03:18:29.214Z,2.90
2017-12-28T03:20:56.650Z,2.90
2017-12-28T03:23:24.846Z,3.00
2017-12-28T03:25:52.287Z,2.90
2017-12-28T03:28:20.490Z,3.00
2017-12-28T03:30:47.932Z,3.00
2017-12-28T03:33:15.359Z,3.00
2017-12-28T03:35:43.582Z,3.00
2017-12-28T03:38:11.014Z,3.00
2017-12-28T03:40:38.480Z,3.20
2017-12-28T03:43:06.665Z,3.20
2017-12-28T03:45:34.106Z,3.10
2017-12-28T03:48:01.534Z,3.20
2017-12-28T03:50:29.767Z,3.20
2017-12-28T03:52:57.206Z,3.10
2017-12-28T03:55:24.642Z,3.10
2017-12-28T03:57:52.091Z,3.10
2017-12-28T04:00:20.294Z,3.00
2017-12-28T04:02:47.734Z,3.00
2017-12-28T04:05:15.162Z,3.00
2017-12-28T04:07:42.610Z,3.10
2017-12-28T04:10:10.034Z,3.10
2017-12-28T04:12:37.476Z,3.10
2017-12-28T04:15:04.898Z,3.20
2017-12-28T04:17:33.110Z,3.20
2017-12-28T04:20:00.539Z,3.20
2017-12-28T04:22:28.754Z,3.10
2017-12-28T04:24:56.191Z,3.10
2017-12-28T04:27:23.666Z,3.10
2017-12-28T04:29:51.111Z,3.10
2017-12-28T04:32:18.554Z,3.10
2017-12-28T04:34:45.986Z,3.10
2017-12-28T04:37:14.206Z,3.10
2017-12-28T04:39:41.638Z,3.00
2017-12-28T04:42:09.078Z,3.00
2017-12-28T04:44:37.293Z,3.00
2017-12-28T04:47:04.734Z,3.00
2017-12-28T04:49:32.162Z,3.00
2017-12-28T04:52:00.366Z,3.00
2017-12-28T04:54:27.793Z,3.00
2017-12-28T04:56:56.019Z,3.10
2017-12-28T04:59:23.430Z,3.10
2017-12-28T05:01:51.642Z,3.00
2017-12-28T05:04:19.072Z,3.00
2017-12-28T05:06:47.273Z,2.90
2017-12-28T05:09:14.707Z,2.90
2017-12-28T05:11:42.147Z,3.00
2017-12-28T05:14:10.355Z,2.90
2017-12-28T05:16:37.812Z,2.90
2017-12-28T05:19:05.286Z,3.00
2017-12-28T05:21:32.738Z,3.00
2017-12-28T05:24:00.174Z,3.00
2017-12-28T05:26:27.618Z,3.10
2017-12-28T05:28:55.825Z,3.00
2017-12-28T05:31:23.262Z,3.00
2017-12-28T05:33:50.711Z,3.00
2017-12-28T05:36:18.150Z,3.00
2017-12-28T05:38:46.359Z,3.00
2017-12-28T05:41:13.798Z,3.00
2017-12-28T05:43:41.283Z,2.90
2017-12-28T05:46:08.735Z,2.90
2017-12-28T05:48:36.159Z,2.90
2017-12-28T05:51:04.370Z,3.00
2017-12-28T05:53:31.803Z,3.00
2017-12-28T05:55:59.238Z,3.00
2017-12-28T05:58:27.426Z,3.10
2017-12-28T06:00:55.634Z,3.10
2017-12-28T06:03:23.062Z,3.00
2017-12-28T06:05:50.498Z,3.10
2017-12-28T06:08:18.711Z,3.20
2017-12-28T06:10:46.142Z,3.10
2017-12-28T06:13:14.350Z,3.10
2017-12-28T06:15:41.793Z,3.10
2017-12-28T06:18:09.239Z,3.20
2017-12-28T06:20:36.684Z,3.20
2017-12-28T06:23:04.883Z,3.10
2017-12-28T06:25:32.315Z,3.10
2017-12-28T06:28:00.522Z,2.90
2017-12-28T06:30:27.971Z,2.90
2017-12-28T06:32:55.401Z,3.10
2017-12-28T06:35:23.607Z,3.00
2017-12-28T06:37:51.043Z,3.00
2017-12-28T06:40:18.474Z,3.10
2017-12-28T06:42:45.906Z,3.00
2017-12-28T06:45:13.342Z,3.00
2017-12-28T06:47:40.782Z,3.00
2017-12-28T06:50:08.222Z,3.00
2017-12-28T06:52:36.422Z,2.90
2017-12-28T06:55:03.855Z,2.90
2017-12-28T06:57:32.054Z,2.90
2017-12-28T06:59:59.489Z,2.90
2017-12-28T07:02:27.726Z,2.80
2017-12-28T07:04:55.123Z,2.80
2017-12-28T07:07:22.562Z,2.80
2017-12-28T07:09:50.758Z,2.80
2017-12-28T07:12:18.198Z,2.80
2017-12-28T07:14:46.409Z,2.80
2017-12-28T07:17:13.888Z,2.80
2017-12-28T07:19:41.352Z,2.90
2017-12-28T07:22:08.790Z,3.00
2017-12-28T07:24:36.223Z,3.00
2017-12-28T07:27:03.654Z,2.90
2017-12-28T07:29:31.850Z,2.90
2017-12-28T07:31:59.291Z,2.90
2017-12-28T07:34:27.487Z,2.90
2017-12-28T07:36:54.926Z,2.90
2017-12-28T07:39:22.358Z,2.90
2017-12-28T07:41:49.787Z,2.90
2017-12-28T07:44:17.215Z,2.80
2017-12-28T07:46:44.658Z,2.80
2017-12-28T07:49:12.085Z,2.80
2017-12-28T07:51:39.527Z,2.80
2017-12-28T07:54:06.965Z,2.80
2017-12-28T07:56:34.406Z,2.80
2017-12-28T07:59:01.835Z,2.80
2017-12-28T08:01:30.038Z,2.80
2017-12-28T08:03:57.470Z,2.80
2017-12-28T08:06:24.910Z,2.80
2017-12-28T08:08:53.114Z,2.80
2017-12-28T08:11:20.551Z,2.80
2017-12-28T08:13:48.754Z,2.80
2017-12-28T08:16:16.191Z,2.80
2017-12-28T08:18:43.631Z,2.80
2017-12-28T08:21:11.835Z,2.80
2017-12-28T08:23:39.279Z,2.80
2017-12-28T08:26:06.717Z,2.70
2017-12-28T08:28:34.918Z,2.80
2017-12-28T08:31:02.350Z,2.80
2017-12-28T08:33:30.557Z,2.80
2017-12-28T08:35:57.986Z,2.80
2017-12-28T08:38:26.196Z,2.80
2017-12-28T08:40:53.619Z,2.80
2017-12-28T08:43:21.838Z,2.90
2017-12-28T08:45:49.271Z,2.90
2017-12-28T08:48:16.706Z,2.80
2017-12-28T08:50:44.143Z,2.90
2017-12-28T08:53:11.586Z,2.90
2017-12-28T08:55:39.038Z,3.00
2017-12-28T08:58:06.483Z,3.00
2017-12-28T09:00:33.932Z,2.90
2017-12-28T09:03:01.373Z,2.90
2017-12-28T09:05:28.806Z,3.00
2017-12-28T09:07:57.079Z,3.00
2017-12-28T09:10:25.225Z,3.10
2017-12-28T09:12:52.667Z,3.10
2017-12-28T09:15:20.099Z,3.10
2017-12-28T09:17:47.538Z,3.20
2017-12-28T09:20:14.974Z,3.20
2017-12-28T09:22:43.192Z,3.30
2017-12-28T09:25:10.618Z,3.30
2017-12-28T09:27:38.057Z,3.30
2017-12-28T09:30:06.258Z,3.40
2017-12-28T09:32:33.695Z,3.40
2017-12-28T09:35:01.891Z,3.50
2017-12-28T09:37:29.330Z,3.50
2017-12-28T09:39:57.527Z,3.60
2017-12-28T09:42:24.969Z,3.60
2017-12-28T09:44:52.403Z,3.60
2017-12-28T09:47:20.615Z,3.80
2017-12-28T09:49:48.038Z,3.80
2017-12-28T09:52:16.246Z,3.90
2017-12-28T09:54:43.677Z,3.90
2017-12-28T09:57:11.883Z,3.90
2017-12-28T09:59:39.334Z,3.90
2017-12-28T10:02:06.775Z,3.90
2017-12-28T10:04:34.206Z,3.90
2017-12-28T10:07:01.648Z,4.00
2017-12-28T10:09:29.103Z,4.10
2017-12-28T10:11:56.534Z,4.00
2017-12-28T10:14:23.963Z,3.80
2017-12-28T10:16:51.394Z,3.90
2017-12-28T10:19:19.599Z,4.10
2017-12-28T10:21:47.028Z,4.10
2017-12-28T10:24:15.234Z,4.30
2017-12-28T10:26:42.662Z,4.30
2017-12-28T10:29:10.877Z,4.20
2017-12-28T10:31:38.310Z,4.10
2017-12-28T10:34:05.781Z,4.20
2017-12-28T10:36:33.202Z,4.20
2017-12-28T10:39:01.402Z,4.20
2017-12-28T10:41:28.846Z,4.20
2017-12-28T10:43:57.046Z,4.30
2017-12-28T10:46:24.479Z,4.40
2017-12-28T10:48:52.687Z,4.50
2017-12-28T10:51:20.114Z,4.50
2017-12-28T10:53:47.583Z,4.40
2017-12-28T10:56:15.010Z,4.40
2017-12-28T10:58:43.219Z,4.20
2017-12-28T11:01:10.651Z,4.10
2017-12-28T11:03:38.863Z,4.30
2017-12-28T11:06:06.298Z,4.30
2017-12-28T11:08:33.749Z,4.40
2017-12-28T11:11:02.024Z,4.60
2017-12-28T11:13:29.432Z,4.60
2017-12-28T11:15:56.862Z,4.40
2017-12-28T11:18:24.317Z,4.60
2017-12-28T11:20:51.746Z,4.70
2017-12-28T11:23:19.190Z,4.60
2017-12-28T11:25:47.399Z,4.80
2017-12-28T11:28:14.836Z,4.80
2017-12-28T11:30:42.266Z,5.00
2017-12-28T11:33:09.719Z,5.40
2017-12-28T11:35:37.151Z,5.60
2017-12-28T11:38:04.595Z,5.90
2017-12-28T11:40:32.042Z,6.10
2017-12-28T11:42:59.519Z,5.90
2017-12-28T11:45:26.938Z,5.80
2017-12-28T11:47:54.393Z,5.90
2017-12-28T11:50:21.825Z,5.70
2017-12-28T11:52:55.715Z,5.20
2017-12-28T11:55:23.146Z,5.20
2017-12-28T11:57:56.465Z,5.50
2017-12-28T12:00:27.821Z,5.20
2017-12-28T12:03:00.922Z,5.20
2017-12-28T12:18:48.683Z,5.00
2017-12-28T12:21:16.111Z,5.00
2017-12-28T12:23:44.314Z,5.10
2017-12-28T12:26:11.778Z,5.10
2017-12-28T12:28:39.228Z,4.80
2017-12-28T12:31:06.657Z,4.80
2017-12-28T12:33:34.868Z,4.70
2017-12-28T12:36:02.302Z,4.70
2017-12-28T12:38:29.755Z,4.80
2017-12-28T12:40:57.185Z,4.70
2017-12-28T12:43:24.630Z,4.70
2017-12-28T12:45:52.062Z,4.60
2017-12-28T12:48:19.506Z,4.60
2017-12-28T12:50:46.941Z,4.50
2017-12-28T12:53:14.382Z,4.70
2017-12-28T12:55:42.578Z,5.20
2017-12-28T12:58:10.787Z,5.40
2017-12-28T13:00:38.227Z,5.30
2017-12-28T13:03:05.699Z,5.20
2017-12-28T13:05:33.132Z,5.10
2017-12-28T13:08:00.598Z,5.00
2017-12-28T13:10:28.023Z,4.90
2017-12-28T13:12:56.220Z,4.80
2017-12-28T13:15:23.678Z,4.80
2017-12-28T13:17:51.098Z,4.70
2017-12-28T13:20:19.359Z,4.60
2017-12-28T13:22:46.786Z,4.60
2017-12-28T13:25:14.223Z,4.60
2017-12-28T13:27:41.649Z,4.50
2017-12-28T13:30:09.867Z,4.60
2017-12-28T13:32:37.302Z,4.50
2017-12-28T13:35:04.745Z,4.50
2017-12-28T13:37:32.958Z,4.60
2017-12-28T13:40:00.400Z,4.60
2017-12-28T13:42:27.826Z,4.60
2017-12-28T13:44:56.031Z,4.60
2017-12-28T13:47:23.466Z,4.60
2017-12-28T13:49:50.902Z,4.60
2017-12-28T13:52:19.155Z,4.80
2017-12-28T13:54:46.542Z,4.90
2017-12-28T13:57:14.748Z,4.90
2017-12-28T13:59:42.190Z,4.90
2017-12-28T14:02:09.628Z,5.00
2017-12-28T14:04:37.837Z,4.80
2017-12-28T14:07:05.271Z,4.70
2017-12-28T14:09:33.475Z,4.70
2017-12-28T14:12:00.917Z,4.70
2017-12-28T14:14:28.350Z,4.70
2017-12-28T14:16:56.546Z,4.70
2017-12-28T14:19:23.990Z,4.70
2017-12-28T14:21:51.422Z,4.60
2017-12-28T14:24:18.862Z,4.50
2017-12-28T14:26:46.306Z,4.40
2017-12-28T14:29:13.747Z,4.40
2017-12-28T14:31:41.197Z,4.40
2017-12-28T14:34:08.627Z,4.40
2017-12-28T14:36:36.823Z,4.30
2017-12-28T14:39:04.267Z,4.30
2017-12-28T14:41:31.707Z,4.30
2017-12-28T14:43:59.906Z,4.20
2017-12-28T14:46:27.337Z,4.20
2017-12-28T14:48:55.549Z,4.30
2017-12-28T14:51:22.979Z,4.20
2017-12-28T14:53:51.184Z,4.20
2017-12-28T14:56:18.615Z,4.20
2017-12-28T14:58:46.060Z,4.20
2017-12-28T15:01:14.274Z,4.20
2017-12-28T15:03:41.723Z,4.10
2017-12-28T15:06:09.162Z,4.20
2017-12-28T15:08:36.615Z,4.20
2017-12-28T15:11:04.814Z,4.20
2017-12-28T15:13:32.254Z,4.20
2017-12-28T15:15:59.729Z,4.20
2017-12-28T15:18:27.162Z,4.20
2017-12-28T15:20:54.644Z,4.10
2017-12-28T15:23:22.074Z,4.10
2017-12-28T15:25:49.517Z,4.10
2017-12-28T15:28:17.710Z,4.10
2017-12-28T15:30:45.158Z,4.10
2017-12-28T15:33:13.348Z,4.10
2017-12-28T15:35:40.801Z,4.00
2017-12-28T15:38:08.235Z,4.00
2017-12-28T15:40:36.465Z,4.00
2017-12-28T15:43:03.897Z,4.00
2017-12-28T15:45:31.334Z,4.00
2017-12-28T15:47:59.559Z,4.00
2017-12-28T15:50:27.007Z,4.00
2017-12-28T15:52:54.445Z,3.90
2017-12-28T15:55:21.887Z,3.90
2017-12-28T15:57:49.327Z,3.80
2017-12-28T16:00:17.546Z,3.90
2017-12-28T16:02:44.975Z,3.90
2017-12-28T16:05:13.187Z,3.90
2017-12-28T16:07:40.624Z,3.80
2017-12-28T16:10:08.075Z,3.80
2017-12-28T16:12:35.515Z,3.80
2017-12-28T16:15:02.962Z,3.70
2017-12-28T16:17:30.405Z,3.70
2017-12-28T16:19:57.850Z,3.70
2017-12-28T16:22:25.282Z,3.60
2017-12-28T16:24:52.726Z,3.60
2017-12-28T16:27:20.164Z,3.60
2017-12-28T16:29:47.601Z,3.60
2017-12-28T16:32:15.798Z,3.60
2017-12-28T16:34:43.247Z,3.60
2017-12-28T16:37:10.707Z,3.60
2017-12-28T16:39:38.142Z,3.60
2017-12-28T16:42:05.606Z,3.60
2017-12-28T16:44:33.832Z,3.60
2017-12-28T16:47:01.267Z,3.60
2017-12-28T16:49:28.729Z,3.60
2017-12-28T16:51:56.182Z,3.60
2017-12-28T16:54:23.637Z,3.60
2017-12-28T16:56:51.063Z,3.60
2017-12-28T16:59:19.282Z,3.60
2017-12-28T17:01:46.724Z,3.60
2017-12-28T17:04:14.183Z,3.60
2017-12-28T17:06:41.619Z,3.60
2017-12-28T17:09:09.076Z,3.60
2017-12-28T17:11:36.512Z,3.50
2017-12-28T17:14:04.720Z,3.60
2017-12-28T17:16:32.150Z,3.50
2017-12-28T17:19:00.350Z,3.50
2017-12-28T17:21:27.804Z,3.50
2017-12-28T17:23:55.251Z,3.40
2017-12-28T17:26:22.705Z,3.50
2017-12-28T17:28:50.910Z,3.40
2017-12-28T17:31:18.350Z,3.40
2017-12-28T17:33:45.782Z,3.40
2017-12-28T17:36:14.797Z,3.40
2017-12-28T17:38:42.235Z,3.40
2017-12-28T17:41:10.447Z,3.40
2017-12-28T17:43:37.886Z,3.40
2017-12-28T17:46:05.375Z,3.30
2017-12-28T17:48:32.814Z,3.40
2017-12-28T17:51:00.269Z,3.40
2017-12-28T17:53:27.713Z,3.40
2017-12-28T17:55:55.158Z,3.30
2017-12-28T17:58:23.362Z,3.40
2017-12-28T18:00:50.798Z,3.40
2017-12-28T18:03:18.231Z,3.30
2017-12-28T18:05:46.442Z,3.40
2017-12-28T18:08:13.872Z,3.40
2017-12-28T18:10:42.082Z,3.30
2017-12-28T18:13:09.511Z,3.30
2017-12-28T18:15:36.967Z,3.30
2017-12-28T18:18:05.155Z,3.30
2017-12-28T18:20:32.590Z,3.30
2017-12-28T18:23:00.810Z,3.20
2017-12-28T18:25:28.255Z,3.20
2017-12-28T18:27:55.691Z,3.20
2017-12-28T18:30:23.150Z,3.20
2017-12-28T18:32:51.379Z,3.20
2017-12-28T18:35:18.882Z,3.10
2017-12-28T18:37:46.280Z,3.10
2017-12-28T18:40:13.731Z,3.10
2017-12-28T18:42:41.162Z,3.10
2017-12-28T18:45:08.604Z,3.10
2017-12-28T18:47:36.046Z,3.10
2017-12-28T18:50:04.259Z,3.10
2017-12-28T18:52:31.690Z,3.10
2017-12-28T18:54:59.910Z,3.10
2017-12-28T18:57:27.343Z,3.10
2017-12-28T18:59:54.772Z,3.00
2017-12-28T19:02:22.991Z,3.00
2017-12-28T19:04:50.426Z,3.00
2017-12-28T19:07:17.882Z,3.00
2017-12-28T19:09:45.310Z,3.00
2017-12-28T19:12:13.522Z,3.00
2017-12-28T19:14:40.979Z,3.00
2017-12-28T19:17:08.431Z,3.00
2017-12-28T19:19:35.863Z,2.90
2017-12-28T19:22:04.084Z,3.00
2017-12-28T19:24:31.515Z,2.90
2017-12-28T19:26:58.974Z,3.00
2017-12-28T19:29:26.410Z,3.00
2017-12-28T19:31:55.010Z,2.90
2017-12-28T19:34:22.434Z,2.90
2017-12-28T19:36:50.650Z,2.90
2017-12-28T19:39:18.087Z,2.90
2017-12-28T19:41:45.525Z,2.90
2017-12-28T19:44:13.727Z,2.90
2017-12-28T19:46:41.183Z,2.90
2017-12-28T19:49:08.626Z,2.90
2017-12-28T19:51:36.831Z,2.90
2017-12-28T19:54:04.270Z,2.90
2017-12-28T19:56:31.719Z,2.90
2017-12-28T19:58:59.159Z,2.90
2017-12-28T20:01:27.379Z,2.90
2017-12-28T20:03:54.847Z,2.90
2017-12-28T20:06:22.283Z,2.90
2017-12-28T20:08:49.727Z,2.90
2017-12-28T20:11:17.162Z,2.90
2017-12-28T20:13:45.369Z,2.90
2017-12-28T20:16:12.802Z,2.90
2017-12-28T20:18:41.008Z,2.90
2017-12-28T20:21:08.450Z,2.90
2017-12-28T20:23:35.903Z,2.90
2017-12-28T20:26:03.343Z,2.80
2017-12-28T20:28:31.553Z,2.90
2017-12-28T20:30:58.998Z,2.90
2017-12-28T20:33:26.441Z,2.90
2017-12-28T20:35:54.640Z,2.90
2017-12-28T20:38:22.095Z,2.90
2017-12-28T20:40:49.543Z,2.90
2017-12-28T20:43:16.984Z,2.90
2017-12-28T20:45:45.190Z,2.90
2017-12-28T20:48:12.644Z,2.90
2017-12-28T20:50:40.100Z,2.90
2017-12-28T20:53:07.579Z,2.90
2017-12-28T20:55:35.022Z,2.90
2017-12-28T20:58:02.492Z,2.90
2017-12-28T21:00:29.931Z,2.90
2017-12-28T21:02:57.371Z,2.90
2017-12-28T21:05:24.810Z,2.90
2017-12-28T21:07:53.023Z,3.00
2017-12-28T21:10:20.455Z,3.00
2017-12-28T21:12:47.915Z,3.00
2017-12-28T21:15:15.346Z,3.00
2017-12-28T21:17:43.572Z,3.00
2017-12-28T21:20:11.012Z,3.00
2017-12-28T21:22:38.455Z,3.00
2017-12-28T21:25:05.900Z,3.10
2017-12-28T21:27:34.106Z,3.00
2017-12-28T21:30:01.571Z,3.00
2017-12-28T21:32:29.011Z,3.10
2017-12-28T21:34:56.453Z,3.10
2017-12-28T21:37:24.661Z,3.00
2017-12-28T21:39:52.090Z,3.10
2017-12-28T21:42:19.535Z,3.00
2017-12-28T21:44:47.730Z,3.10
2017-12-28T21:47:15.166Z,3.10
2017-12-28T21:49:43.375Z,3.10
2017-12-28T21:52:10.811Z,3.10
2017-12-28T21:54:38.254Z,3.20
2017-12-28T21:57:06.459Z,3.10
2017-12-28T21:59:33.899Z,3.10
2017-12-28T22:02:01.327Z,3.20
2017-12-28T22:04:29.538Z,3.20
2017-12-28T22:06:56.970Z,3.20
2017-12-28T22:09:25.183Z,3.20
2017-12-28T22:11:52.660Z,3.20
2017-12-28T22:14:20.082Z,3.20
2017-12-28T22:16:47.531Z,3.20
2017-12-28T22:19:15.074Z,3.20
2017-12-28T22:21:42.491Z,3.20
2017-12-28T22:24:09.951Z,3.30
2017-12-28T22:26:37.390Z,3.20
2017-12-28T22:29:04.834Z,3.30
2017-12-28T22:31:32.282Z,3.30
2017-12-28T22:34:00.470Z,3.30
2017-12-28T22:36:27.906Z,3.30
2017-12-28T22:38:55.346Z,3.30
2017-12-28T22:41:23.549Z,3.20
2017-12-28T22:43:50.986Z,3.20
2017-12-28T22:46:19.184Z,3.20
2017-12-28T22:48:46.622Z,3.20
2017-12-28T22:51:14.070Z,3.10
2017-12-28T22:53:42.272Z,3.00
2017-12-28T22:56:09.703Z,3.00
2017-12-28T22:58:37.910Z,2.80
2017-12-28T23:01:05.343Z,2.80
2017-12-28T23:03:32.790Z,2.80
2017-12-28T23:06:00.991Z,2.80
2017-12-28T23:08:28.431Z,2.80
2017-12-28T23:10:55.859Z,2.80
2017-12-28T23:13:23.303Z,2.70
2017-12-28T23:15:50.740Z,2.80
2017-12-28T23:18:18.183Z,2.80
2017-12-28T23:20:45.613Z,2.70
2017-12-28T23:23:13.059Z,2.70
2017-12-28T23:25:41.253Z,2.60
2017-12-28T23:28:08.698Z,2.60
2017-12-28T23:30:36.139Z,2.60
2017-12-28T23:33:04.351Z,2.50
2017-12-28T23:35:31.796Z,2.50
2017-12-28T23:37:59.234Z,2.50
2017-12-28T23:40:27.438Z,2.40
2017-12-28T23:42:54.886Z,2.40
2017-12-28T23:45:22.348Z,2.40
2017-12-28T23:47:49.786Z,2.40
2017-12-28T23:50:17.991Z,2.30
2017-12-28T23:52:45.436Z,2.30
2017-12-28T23:55:12.895Z,2.30
2017-12-28T23:57:40.335Z,2.30
